createdAt,value
2023-05-09T00:00:56.672Z,0.42
2023-05-09T00:01:56.709Z,0.40
2023-05-09T00:02:56.669Z,0.40
2023-05-09T00:03:56.679Z,0.41
2023-05-09T00:04:56.653Z,0.43
2023-05-09T00:05:56.638Z,0.48
2023-05-09T00:06:56.635Z,0.50
2023-05-09T00:07:56.634Z,0.50
2023-05-09T00:08:56.615Z,0.50
2023-05-09T00:09:56.621Z,0.51
2023-05-09T00:10:56.728Z,0.50
2023-05-09T00:11:56.653Z,0.50
2023-05-09T00:12:56.768Z,0.51
2023-05-09T00:13:56.757Z,0.50
2023-05-09T00:14:56.877Z,0.51
2023-05-09T00:15:56.865Z,0.50
2023-05-09T00:16:56.947Z,0.50
2023-05-09T00:17:57.751Z,0.50
2023-05-09T00:18:56.994Z,0.50
2023-05-09T00:19:57.069Z,0.51
2023-05-09T00:20:57.120Z,0.50
2023-05-09T00:21:57.189Z,0.51
2023-05-09T00:22:57.251Z,0.50
2023-05-09T00:23:57.302Z,0.50
2023-05-09T00:24:57.342Z,0.50
2023-05-09T00:25:57.396Z,0.50
2023-05-09T00:26:57.594Z,0.50
2023-05-09T00:27:57.522Z,0.51
2023-05-09T00:28:57.574Z,0.51
2023-05-09T00:29:57.668Z,0.50
2023-05-09T00:30:57.691Z,0.50
2023-05-09T00:31:58.756Z,0.50
2023-05-09T00:32:57.827Z,0.51
2023-05-09T00:33:57.864Z,0.50
2023-05-09T00:34:57.907Z,0.51
2023-05-09T00:35:57.978Z,0.50
2023-05-09T00:36:58.017Z,0.50
2023-05-09T00:37:58.062Z,0.51
2023-05-09T00:38:58.111Z,0.51
2023-05-09T00:39:58.171Z,0.51
2023-05-09T00:40:58.237Z,0.50
2023-05-09T00:41:58.284Z,0.50
2023-05-09T00:42:58.476Z,0.50
2023-05-09T00:43:58.411Z,0.51
2023-05-09T00:44:58.466Z,0.51
2023-05-09T00:45:58.556Z,0.50
2023-05-09T00:46:58.596Z,0.50
2023-05-09T00:47:58.704Z,0.50
2023-05-09T00:48:58.720Z,0.50
2023-05-09T00:49:58.774Z,0.51
2023-05-09T00:50:58.842Z,0.51
2023-05-09T00:51:58.912Z,0.51
2023-05-09T00:52:58.961Z,0.50
2023-05-09T00:53:58.985Z,0.50
2023-05-09T00:54:59.039Z,0.51
2023-05-09T00:55:59.093Z,0.51
2023-05-09T00:56:59.151Z,0.50
2023-05-09T00:57:59.244Z,0.51
2023-05-09T00:58:59.392Z,0.51
2023-05-09T00:59:59.362Z,0.51
2023-05-09T01:00:59.457Z,0.51
2023-05-09T01:01:59.474Z,0.51
2023-05-09T01:02:59.626Z,0.50
2023-05-09T01:03:59.585Z,0.51
2023-05-09T01:04:59.612Z,0.50
2023-05-09T01:06:00.111Z,0.50
2023-05-09T01:06:59.785Z,0.52
2023-05-09T01:07:59.791Z,0.50
2023-05-09T01:08:59.861Z,0.51
2023-05-09T01:09:59.914Z,0.50
2023-05-09T01:10:59.984Z,0.51
2023-05-09T01:12:00.058Z,0.50
2023-05-09T01:13:00.380Z,0.51
2023-05-09T01:14:00.179Z,0.50
2023-05-09T01:15:00.283Z,0.51
2023-05-09T01:16:00.289Z,0.50
2023-05-09T01:17:00.288Z,0.50
2023-05-09T01:18:00.392Z,0.51
2023-05-09T01:19:00.356Z,0.51
2023-05-09T01:20:00.409Z,0.52
2023-05-09T01:21:00.445Z,0.51
2023-05-09T01:22:00.494Z,0.51
2023-05-09T01:23:00.533Z,0.50
2023-05-09T01:24:01.428Z,0.51
2023-05-09T01:25:00.649Z,0.51
2023-05-09T01:26:00.730Z,0.51
2023-05-09T01:27:00.776Z,0.50
2023-05-09T01:28:00.849Z,0.52
2023-05-09T01:29:00.887Z,0.51
2023-05-09T01:30:00.948Z,0.51
2023-05-09T01:31:01.614Z,0.51
2023-05-09T01:32:01.060Z,0.51
2023-05-09T01:33:01.166Z,0.50
2023-05-09T01:34:01.142Z,0.51
2023-05-09T01:35:01.226Z,0.51
2023-05-09T01:36:01.267Z,0.51
2023-05-09T01:37:01.308Z,0.50
2023-05-09T01:38:01.357Z,0.50
2023-05-09T01:39:01.935Z,0.51
2023-05-09T01:40:01.537Z,0.51
2023-05-09T01:41:01.556Z,0.50
2023-05-09T01:42:01.623Z,0.51
2023-05-09T01:43:01.679Z,0.51
2023-05-09T01:44:01.749Z,0.50
2023-05-09T01:45:01.779Z,0.52
2023-05-09T01:46:01.816Z,0.50
2023-05-09T01:47:02.049Z,0.51
2023-05-09T01:48:01.968Z,0.50
2023-05-09T01:49:01.961Z,0.52
2023-05-09T01:50:02.002Z,0.51
2023-05-09T01:51:03.668Z,0.51
2023-05-09T01:52:02.205Z,0.51
2023-05-09T01:53:02.289Z,0.52
2023-05-09T01:54:02.315Z,0.51
2023-05-09T01:55:02.455Z,0.51
2023-05-09T01:56:02.433Z,0.51
2023-05-09T01:57:02.492Z,0.51
2023-05-09T01:58:02.546Z,0.52
2023-05-09T01:59:02.601Z,0.51
2023-05-09T02:00:02.638Z,0.50
2023-05-09T02:01:02.749Z,0.51
2023-05-09T02:02:02.729Z,0.51
2023-05-09T02:03:02.927Z,0.51
2023-05-09T02:04:02.874Z,0.50
2023-05-09T02:05:02.850Z,0.51
2023-05-09T02:06:02.884Z,0.50
2023-05-09T02:07:02.936Z,0.50
2023-05-09T02:08:02.967Z,0.51
2023-05-09T02:09:03.001Z,0.51
2023-05-09T02:10:03.047Z,0.51
2023-05-09T02:11:03.101Z,0.51
2023-05-09T02:12:03.139Z,0.51
2023-05-09T02:13:03.217Z,0.51
2023-05-09T02:14:03.216Z,0.51
2023-05-09T02:15:03.264Z,0.51
2023-05-09T02:16:03.291Z,0.51
2023-05-09T02:17:03.380Z,0.50
2023-05-09T02:18:03.394Z,0.51
2023-05-09T02:19:03.496Z,0.51
2023-05-09T02:20:03.403Z,0.50
2023-05-09T02:21:03.479Z,0.52
2023-05-09T02:22:03.457Z,0.51
2023-05-09T02:23:03.486Z,0.50
2023-05-09T02:24:03.564Z,0.51
2023-05-09T02:25:03.541Z,0.51
2023-05-09T02:26:03.564Z,0.52
2023-05-09T02:27:03.612Z,0.51
2023-05-09T02:28:03.642Z,0.51
2023-05-09T02:29:03.691Z,0.51
2023-05-09T02:30:03.714Z,0.50
2023-05-09T02:31:03.745Z,0.51
2023-05-09T02:32:03.824Z,0.51
2023-05-09T02:33:03.823Z,0.52
2023-05-09T02:34:03.829Z,0.52
2023-05-09T02:35:04.014Z,0.51
2023-05-09T02:36:03.888Z,0.51
2023-05-09T02:37:03.937Z,0.52
2023-05-09T02:38:03.988Z,0.51
2023-05-09T02:39:04.014Z,0.51
2023-05-09T02:40:04.035Z,0.51
2023-05-09T02:41:04.041Z,0.52
2023-05-09T02:42:04.071Z,0.51
2023-05-09T02:43:04.084Z,0.51
2023-05-09T02:44:04.114Z,0.51
2023-05-09T02:45:04.147Z,0.52
2023-05-09T02:46:04.174Z,0.52
2023-05-09T02:47:04.173Z,0.51
2023-05-09T02:48:06.911Z,0.52
2023-05-09T02:49:04.186Z,0.52
2023-05-09T02:50:04.189Z,0.52
2023-05-09T02:51:04.299Z,0.52
2023-05-09T02:52:04.172Z,0.51
2023-05-09T02:53:04.154Z,0.51
2023-05-09T02:54:04.155Z,0.51
2023-05-09T02:55:04.161Z,0.51
2023-05-09T02:56:04.185Z,0.51
2023-05-09T02:57:04.226Z,0.51
2023-05-09T02:58:13.523Z,0.51
2023-05-09T02:59:04.257Z,0.51
2023-05-09T03:00:04.246Z,0.51
2023-05-09T03:01:04.282Z,0.51
2023-05-09T03:02:04.225Z,0.51
2023-05-09T03:03:04.272Z,0.52
2023-05-09T03:04:04.216Z,0.51
2023-05-09T03:05:04.230Z,0.51
2023-05-09T03:06:04.192Z,0.51
2023-05-09T03:07:04.323Z,0.51
2023-05-09T03:08:04.983Z,0.51
2023-05-09T03:09:04.175Z,0.52
2023-05-09T03:10:04.190Z,0.51
2023-05-09T03:11:04.167Z,0.51
2023-05-09T03:12:04.189Z,0.50
2023-05-09T03:13:04.173Z,0.51
2023-05-09T03:14:04.155Z,0.51
2023-05-09T03:15:04.140Z,0.51
2023-05-09T03:16:04.143Z,0.51
2023-05-09T03:17:04.122Z,0.51
2023-05-09T03:18:04.136Z,0.50
2023-05-09T03:19:04.106Z,0.51
2023-05-09T03:20:04.593Z,0.50
2023-05-09T03:21:04.094Z,0.50
2023-05-09T03:22:04.092Z,0.51
2023-05-09T03:23:04.206Z,0.50
2023-05-09T03:24:04.064Z,0.50
2023-05-09T03:25:04.105Z,0.51
2023-05-09T03:26:04.055Z,0.50
2023-05-09T03:27:04.063Z,0.51
2023-05-09T03:28:04.042Z,0.51
2023-05-09T03:29:04.044Z,0.50
2023-05-09T03:30:04.028Z,0.51
2023-05-09T03:31:04.037Z,0.51
2023-05-09T03:32:04.025Z,0.51
2023-05-09T03:33:04.094Z,0.51
2023-05-09T03:34:04.051Z,0.51
2023-05-09T03:35:04.050Z,0.51
2023-05-09T03:36:04.069Z,0.51
2023-05-09T03:37:04.104Z,0.51
2023-05-09T03:38:04.133Z,0.51
2023-05-09T03:39:04.285Z,0.51
2023-05-09T03:40:04.192Z,0.51
2023-05-09T03:41:04.251Z,0.50
2023-05-09T03:42:04.266Z,0.52
2023-05-09T03:43:04.272Z,0.52
2023-05-09T03:44:04.308Z,0.51
2023-05-09T03:45:04.330Z,0.52
2023-05-09T03:46:04.325Z,0.52
2023-05-09T03:47:04.402Z,0.52
2023-05-09T03:48:04.439Z,0.51
2023-05-09T03:49:04.418Z,0.51
2023-05-09T03:50:04.446Z,0.51
2023-05-09T03:51:04.481Z,0.51
2023-05-09T03:52:04.525Z,0.52
2023-05-09T03:53:04.543Z,0.50
2023-05-09T03:54:04.572Z,0.51
2023-05-09T03:55:04.722Z,0.51
2023-05-09T03:56:04.631Z,0.51
2023-05-09T03:57:04.672Z,0.50
2023-05-09T03:58:04.709Z,0.51
2023-05-09T03:59:04.727Z,0.51
2023-05-09T04:00:04.724Z,0.51
2023-05-09T04:01:04.754Z,0.51
2023-05-09T04:02:04.814Z,0.51
2023-05-09T04:03:04.885Z,0.51
2023-05-09T04:04:04.911Z,0.51
2023-05-09T04:05:04.866Z,0.50
2023-05-09T04:06:04.897Z,0.50
2023-05-09T04:07:04.917Z,0.51
2023-05-09T04:08:04.952Z,0.50
2023-05-09T04:09:04.993Z,0.51
2023-05-09T04:10:05.038Z,0.51
2023-05-09T04:11:05.188Z,0.50
2023-05-09T04:12:05.093Z,0.51
2023-05-09T04:13:05.224Z,0.51
2023-05-09T04:14:05.152Z,0.51
2023-05-09T04:15:05.188Z,0.51
2023-05-09T04:16:05.222Z,0.50
2023-05-09T04:17:05.418Z,0.51
2023-05-09T04:18:05.324Z,0.50
2023-05-09T04:19:05.348Z,0.50
2023-05-09T04:20:05.374Z,0.51
2023-05-09T04:21:05.380Z,0.50
2023-05-09T04:22:05.408Z,0.51
2023-05-09T04:23:05.411Z,0.50
2023-05-09T04:24:05.421Z,0.50
2023-05-09T04:25:05.434Z,0.51
2023-05-09T04:26:05.484Z,0.52
2023-05-09T04:27:05.624Z,0.50
2023-05-09T04:28:05.541Z,0.52
2023-05-09T04:29:05.566Z,0.51
2023-05-09T04:30:05.546Z,0.51
2023-05-09T04:31:06.077Z,0.50
2023-05-09T04:32:05.637Z,0.50
2023-05-09T04:33:05.710Z,0.51
2023-05-09T04:34:05.636Z,0.52
2023-05-09T04:35:05.659Z,0.51
2023-05-09T04:36:05.690Z,0.52
2023-05-09T04:37:05.746Z,0.50
2023-05-09T04:38:05.739Z,0.50
2023-05-09T04:39:05.765Z,0.51
2023-05-09T04:40:05.797Z,0.51
2023-05-09T04:41:05.814Z,0.50
2023-05-09T04:42:05.806Z,0.51
2023-05-09T04:43:05.894Z,0.51
2023-05-09T04:44:05.821Z,0.51
2023-05-09T04:45:05.821Z,0.50
2023-05-09T04:46:05.902Z,0.52
2023-05-09T04:47:05.855Z,0.51
2023-05-09T04:48:05.938Z,0.52
2023-05-09T04:49:05.977Z,0.51
2023-05-09T04:50:05.946Z,0.51
2023-05-09T04:51:05.896Z,0.51
2023-05-09T04:52:05.898Z,0.51
2023-05-09T04:53:05.888Z,0.51
2023-05-09T04:54:05.899Z,0.51
2023-05-09T04:55:05.937Z,0.51
2023-05-09T04:56:05.903Z,0.51
2023-05-09T04:57:16.642Z,0.51
2023-05-09T04:58:05.913Z,0.51
2023-05-09T04:59:06.033Z,0.51
2023-05-09T05:00:05.886Z,0.51
2023-05-09T05:01:05.885Z,0.51
2023-05-09T05:02:05.914Z,0.52
2023-05-09T05:03:05.914Z,0.51
2023-05-09T05:04:05.867Z,0.51
2023-05-09T05:05:11.492Z,0.50
2023-05-09T05:06:05.858Z,0.51
2023-05-09T05:07:05.842Z,0.51
2023-05-09T05:08:05.826Z,0.51
2023-05-09T05:09:05.820Z,0.51
2023-05-09T05:10:05.813Z,0.51
2023-05-09T05:11:05.795Z,0.51
2023-05-09T05:12:07.413Z,0.51
2023-05-09T05:13:05.819Z,0.51
2023-05-09T05:14:05.788Z,0.51
2023-05-09T05:15:05.899Z,0.51
2023-05-09T05:16:05.834Z,0.51
2023-05-09T05:17:05.760Z,0.50
2023-05-09T05:18:05.836Z,0.50
2023-05-09T05:19:05.746Z,0.51
2023-05-09T05:20:05.744Z,0.51
2023-05-09T05:21:05.732Z,0.51
2023-05-09T05:22:05.737Z,0.51
2023-05-09T05:23:06.058Z,0.51
2023-05-09T05:24:05.709Z,0.51
2023-05-09T05:25:05.716Z,0.51
2023-05-09T05:26:05.701Z,0.51
2023-05-09T05:27:05.683Z,0.51
2023-05-09T05:28:06.062Z,0.52
2023-05-09T05:29:05.668Z,0.52
2023-05-09T05:30:05.675Z,0.51
2023-05-09T05:31:05.817Z,0.52
2023-05-09T05:32:06.060Z,0.52
2023-05-09T05:33:05.707Z,0.53
2023-05-09T05:34:05.628Z,0.52
2023-05-09T05:35:05.646Z,0.52
2023-05-09T05:36:05.624Z,0.53
2023-05-09T05:37:05.606Z,0.54
2023-05-09T05:38:06.098Z,0.52
2023-05-09T05:39:05.616Z,0.53
2023-05-09T05:40:05.589Z,0.53
2023-05-09T05:41:05.593Z,0.53
2023-05-09T05:42:05.583Z,0.53
2023-05-09T05:43:06.084Z,0.54
2023-05-09T05:44:08.767Z,0.53
2023-05-09T05:45:06.567Z,0.54
2023-05-09T05:46:05.585Z,0.54
2023-05-09T05:47:05.665Z,0.55
2023-05-09T05:48:06.049Z,0.58
2023-05-09T05:49:05.534Z,0.60
2023-05-09T05:50:05.526Z,0.61
2023-05-09T05:51:05.524Z,0.60
2023-05-09T05:52:05.518Z,0.58
2023-05-09T12:42:16.348Z,0.50
2023-05-09T12:43:17.031Z,0.50
2023-05-09T12:44:17.026Z,0.50
2023-05-09T12:45:17.453Z,0.50
2023-05-09T12:46:17.046Z,0.50
2023-05-09T12:47:17.103Z,0.50
2023-05-09T12:48:16.992Z,0.50
2023-05-09T12:49:16.990Z,0.50
2023-05-09T12:50:17.211Z,0.43
2023-05-09T12:51:16.976Z,0.47
2023-05-09T12:52:16.976Z,0.51
2023-05-09T12:53:16.963Z,0.50
2023-05-09T12:54:16.955Z,0.45
2023-05-09T12:55:17.268Z,0.51
2023-05-09T12:56:16.947Z,0.51
2023-05-09T12:57:16.936Z,0.50
2023-05-09T12:58:17.093Z,0.56
2023-05-09T12:59:16.923Z,0.65
2023-05-09T13:00:17.224Z,0.53
2023-05-09T13:01:16.942Z,0.52
2023-05-09T13:02:16.978Z,0.52
2023-05-09T13:03:16.960Z,0.56
2023-05-09T13:04:16.886Z,0.59
2023-05-09T13:05:17.048Z,0.63
2023-05-09T13:06:16.875Z,0.70
2023-05-09T13:07:16.877Z,0.69
2023-05-09T13:08:16.872Z,0.60
2023-05-09T13:09:16.858Z,0.50
2023-05-09T13:10:16.863Z,0.60
2023-05-09T13:11:17.277Z,0.55
2023-05-09T13:12:17.227Z,0.58
2023-05-09T13:13:16.897Z,0.62
2023-05-09T13:14:16.952Z,0.68
2023-05-09T13:15:17.504Z,0.61
2023-05-09T13:16:17.992Z,0.59
2023-05-09T13:17:16.798Z,0.59
2023-05-09T13:18:16.797Z,0.68
2023-05-09T13:19:16.788Z,0.72
2023-05-09T13:20:17.134Z,0.74
2023-05-09T13:21:17.232Z,0.87
2023-05-09T13:22:16.762Z,0.99
2023-05-09T13:23:16.763Z,1.08
2023-05-09T13:24:16.746Z,1.28
2023-05-09T13:25:16.760Z,1.52
2023-05-09T13:26:16.732Z,2.57
2023-05-09T13:27:16.722Z,2.06
2023-05-09T13:28:16.713Z,1.36
2023-05-09T13:29:16.707Z,1.51
2023-05-09T13:30:17.079Z,1.63
2023-05-09T13:31:16.918Z,1.89
2023-05-09T13:32:16.678Z,2.39
2023-05-09T13:33:25.323Z,2.67
2023-05-09T13:34:16.666Z,2.68
2023-05-09T13:35:16.673Z,2.85
2023-05-09T13:36:16.658Z,3.22
2023-05-09T13:37:16.645Z,4.15
2023-05-09T13:38:16.734Z,5.41
2023-05-09T13:39:16.660Z,5.93
2023-05-09T13:40:17.019Z,6.64
2023-05-09T13:41:16.731Z,6.43
2023-05-09T13:42:19.022Z,6.68
2023-05-09T13:43:16.611Z,6.71
2023-05-09T13:44:16.602Z,6.80
2023-05-09T13:45:16.883Z,7.00
2023-05-09T13:46:16.762Z,7.28
2023-05-09T13:47:16.576Z,7.68
2023-05-09T13:48:16.568Z,7.98
2023-05-09T13:49:16.565Z,8.12
2023-05-09T13:50:16.791Z,8.70
2023-05-09T13:51:16.554Z,8.92
2023-05-09T13:52:16.548Z,8.99
2023-05-09T13:53:16.543Z,8.59
2023-05-09T13:54:16.531Z,8.64
2023-05-09T13:55:16.521Z,8.91
2023-05-09T13:56:16.514Z,9.04
2023-05-09T13:57:16.521Z,8.99
2023-05-09T13:58:16.508Z,9.17
2023-05-09T13:59:16.501Z,9.52
2023-05-09T14:00:17.150Z,9.75
2023-05-09T14:01:16.523Z,9.84
2023-05-09T14:02:16.597Z,9.63
2023-05-09T14:03:16.492Z,9.77
2023-05-09T14:04:16.622Z,9.89
2023-05-09T14:05:16.511Z,10.14
2023-05-09T14:06:16.446Z,9.75
2023-05-09T14:07:16.460Z,9.68
2023-05-09T14:08:16.430Z,9.67
2023-05-09T14:09:16.430Z,9.64
2023-05-09T14:10:16.488Z,9.68
2023-05-09T14:11:16.490Z,9.28
2023-05-09T14:12:16.399Z,9.28
2023-05-09T14:13:16.407Z,9.46
2023-05-09T14:14:16.390Z,9.06
2023-05-09T14:15:16.424Z,9.29
2023-05-09T14:16:16.404Z,9.26
2023-05-09T14:17:16.371Z,9.41
2023-05-09T14:18:19.163Z,9.51
2023-05-09T14:19:16.401Z,9.53
2023-05-09T14:20:16.911Z,9.27
2023-05-09T14:21:16.445Z,9.51
2023-05-09T14:22:16.465Z,9.53
2023-05-09T14:23:16.468Z,9.95
2023-05-09T14:24:16.671Z,9.56
2023-05-09T14:25:16.478Z,9.36
2023-05-09T14:26:16.477Z,9.48
2023-05-09T14:27:16.486Z,9.65
2023-05-09T14:28:16.488Z,9.60
2023-05-09T14:29:16.497Z,9.17
2023-05-09T14:30:16.721Z,9.23
2023-05-09T14:31:16.559Z,9.07
2023-05-09T14:32:16.499Z,9.46
2023-05-09T14:33:16.492Z,9.33
2023-05-09T14:34:16.638Z,9.13
2023-05-09T14:35:16.546Z,9.42
2023-05-09T14:36:16.768Z,9.20
2023-05-09T14:37:17.249Z,9.48
2023-05-09T14:38:16.502Z,9.44
2023-05-09T14:39:16.501Z,9.63
2023-05-09T14:40:17.074Z,9.27
2023-05-09T14:41:16.517Z,9.30
2023-05-09T14:42:16.515Z,9.33
2023-05-09T14:43:16.510Z,9.23
2023-05-09T14:44:16.521Z,8.71
2023-05-09T14:45:16.531Z,9.06
2023-05-09T14:46:16.569Z,8.99
2023-05-09T14:47:16.531Z,8.74
2023-05-09T14:48:16.555Z,8.63
2023-05-09T14:49:16.523Z,8.92
2023-05-09T14:50:16.967Z,8.83
2023-05-09T14:51:16.522Z,9.18
2023-05-09T14:52:16.512Z,9.25
2023-05-09T14:53:16.531Z,9.20
2023-05-09T14:54:16.519Z,9.43
2023-05-09T14:55:16.534Z,8.86
2023-05-09T14:56:16.521Z,9.34
2023-05-09T14:57:16.529Z,8.94
2023-05-09T14:58:16.528Z,8.75
2023-05-09T14:59:16.524Z,8.72
2023-05-09T15:00:21.265Z,9.18
2023-05-09T15:01:16.773Z,9.20
2023-05-09T15:02:16.505Z,9.29
2023-05-09T15:03:16.496Z,9.19
2023-05-09T15:04:16.552Z,9.41
2023-05-09T15:05:16.487Z,9.24
2023-05-09T15:06:16.601Z,9.09
2023-05-09T15:07:16.461Z,9.05
2023-05-09T15:08:16.454Z,9.19
2023-05-09T15:09:16.452Z,9.23
2023-05-09T15:10:17.072Z,9.16
2023-05-09T15:11:16.440Z,8.61
2023-05-09T15:12:16.430Z,9.11
2023-05-09T15:13:16.444Z,8.95
2023-05-09T15:14:16.643Z,9.05
2023-05-09T15:15:16.446Z,8.96
2023-05-09T15:16:16.449Z,9.11
2023-05-09T15:17:16.398Z,9.23
2023-05-09T15:18:16.409Z,8.65
2023-05-09T15:19:16.385Z,9.23
2023-05-09T15:20:16.648Z,8.66
2023-05-09T15:21:16.374Z,8.97
2023-05-09T15:22:16.490Z,8.70
2023-05-09T15:23:16.365Z,8.58
2023-05-09T15:24:16.358Z,8.64
2023-05-09T15:25:16.348Z,8.65
2023-05-09T15:26:16.340Z,8.97
2023-05-09T15:27:16.334Z,9.19
2023-05-09T15:28:16.327Z,8.82
2023-05-09T15:29:16.380Z,9.26
2023-05-09T15:30:16.508Z,8.99
2023-05-09T15:31:16.311Z,9.00
2023-05-09T15:32:16.296Z,9.26
2023-05-09T15:33:16.290Z,8.74
2023-05-09T15:34:16.284Z,8.50
2023-05-09T15:35:16.282Z,8.91
2023-05-09T15:36:16.272Z,8.54
2023-05-09T15:37:16.261Z,8.35
2023-05-09T15:38:16.380Z,8.80
2023-05-09T15:39:16.251Z,8.54
2023-05-09T15:40:16.553Z,8.68
2023-05-09T15:41:16.232Z,8.38
2023-05-09T15:42:16.254Z,8.60
2023-05-09T15:43:16.226Z,8.84
2023-05-09T15:44:16.236Z,8.57
2023-05-09T15:45:16.210Z,8.45
2023-05-09T15:46:16.218Z,8.40
2023-05-09T15:47:16.199Z,8.59
2023-05-09T15:48:16.197Z,8.38
2023-05-09T15:49:16.183Z,8.63
2023-05-09T15:50:16.598Z,8.63
2023-05-09T15:51:16.179Z,8.39
2023-05-09T15:52:16.168Z,8.69
2023-05-09T15:53:16.167Z,8.48
2023-05-09T15:54:16.280Z,8.08
2023-05-09T15:55:16.250Z,8.28
2023-05-09T15:56:16.145Z,8.35
2023-05-09T15:57:16.132Z,8.32
2023-05-09T15:58:16.206Z,8.59
2023-05-09T15:59:16.205Z,8.33
2023-05-09T16:00:16.565Z,8.67
2023-05-09T16:01:16.271Z,8.38
2023-05-09T16:02:16.312Z,8.24
2023-05-09T16:03:16.431Z,8.19
2023-05-09T16:04:16.367Z,7.99
2023-05-09T16:05:16.438Z,7.93
2023-05-09T16:06:16.495Z,8.07
2023-05-09T16:07:16.521Z,8.28
2023-05-09T16:08:16.588Z,8.00
2023-05-09T16:09:16.656Z,8.21
2023-05-09T16:10:17.066Z,8.02
2023-05-09T16:11:16.799Z,8.36
2023-05-09T16:12:16.872Z,8.51
2023-05-09T16:13:16.923Z,8.31
2023-05-09T16:14:17.336Z,8.39
2023-05-09T16:15:17.007Z,7.96
2023-05-09T16:16:17.103Z,8.19
2023-05-09T16:17:17.095Z,8.33
2023-05-09T16:18:17.139Z,8.15
2023-05-09T16:19:17.211Z,8.18
2023-05-09T16:20:17.551Z,8.05
2023-05-09T16:21:17.387Z,7.76
2023-05-09T16:22:17.363Z,8.15
2023-05-09T16:23:17.399Z,8.42
2023-05-09T16:24:17.446Z,8.54
2023-05-09T16:25:17.500Z,8.07
2023-05-09T16:26:17.653Z,7.91
2023-05-09T16:27:17.553Z,8.14
2023-05-09T16:28:17.591Z,7.91
2023-05-09T16:29:17.608Z,7.78
2023-05-09T16:30:17.864Z,7.91
2023-05-09T16:31:17.737Z,8.33
2023-05-09T16:32:17.641Z,7.85
2023-05-09T16:33:17.644Z,8.04
2023-05-09T16:34:17.657Z,7.97
2023-05-09T16:35:17.651Z,7.91
2023-05-09T16:36:17.674Z,8.03
2023-05-09T16:37:17.677Z,8.00
2023-05-09T16:38:17.694Z,7.71
2023-05-09T16:39:17.694Z,7.64
2023-05-09T16:40:17.829Z,7.75
2023-05-09T16:41:17.688Z,7.66
2023-05-09T16:42:17.823Z,7.85
2023-05-09T16:43:17.758Z,7.90
2023-05-09T16:44:17.733Z,7.76
2023-05-09T16:45:17.777Z,7.85
2023-05-09T16:46:17.954Z,8.08
2023-05-09T16:47:18.037Z,7.69
2023-05-09T16:48:18.048Z,7.33
2023-05-09T16:49:18.002Z,7.52
2023-05-09T16:50:18.254Z,7.47
2023-05-09T16:51:18.145Z,7.92
2023-05-09T16:52:18.175Z,7.60
2023-05-09T16:53:18.249Z,7.32
2023-05-09T16:54:18.287Z,7.62
2023-05-09T16:55:18.338Z,7.42
2023-05-09T16:56:18.377Z,7.72
2023-05-09T16:57:18.431Z,7.13
2023-05-09T16:58:18.612Z,7.38
2023-05-09T16:59:18.556Z,7.62
2023-05-09T17:00:18.606Z,7.41
2023-05-09T17:01:18.673Z,7.44
2023-05-09T17:02:18.689Z,7.46
2023-05-09T17:03:18.730Z,7.13
2023-05-09T17:04:18.810Z,7.43
2023-05-09T17:05:18.811Z,6.92
2023-05-09T17:06:18.846Z,7.30
2023-05-09T17:07:18.884Z,7.54
2023-05-09T17:08:18.912Z,7.10
2023-05-09T17:09:18.953Z,7.41
2023-05-09T17:10:19.000Z,7.24
2023-05-09T17:11:19.035Z,7.30
2023-05-09T17:12:19.061Z,7.28
2023-05-09T17:13:19.168Z,7.24
2023-05-09T17:14:19.241Z,7.04
2023-05-09T17:15:19.150Z,7.25
2023-05-09T17:16:19.206Z,7.09
2023-05-09T17:17:19.211Z,7.55
2023-05-09T17:18:25.412Z,7.31
2023-05-09T17:19:19.248Z,7.33
2023-05-09T17:20:19.240Z,7.34
2023-05-09T17:21:19.235Z,7.41
2023-05-09T17:22:19.239Z,7.33
2023-05-09T17:23:19.221Z,7.28
2023-05-09T17:24:19.216Z,7.41
2023-05-09T17:25:19.199Z,7.33
2023-05-09T17:26:19.195Z,7.04
2023-05-09T17:27:19.196Z,7.09
2023-05-09T17:28:19.273Z,7.38
2023-05-09T17:29:19.181Z,7.18
2023-05-09T17:30:21.328Z,7.19
2023-05-09T17:31:19.211Z,7.21
2023-05-09T17:32:19.170Z,7.26
2023-05-09T17:33:19.154Z,7.34
2023-05-09T17:34:19.140Z,7.21
2023-05-09T17:35:19.139Z,7.52
2023-05-09T17:36:19.128Z,7.39
2023-05-09T17:37:19.126Z,7.26
2023-05-09T17:38:19.114Z,7.21
2023-05-09T17:39:19.103Z,7.27
2023-05-09T17:40:19.092Z,7.15
2023-05-09T17:41:19.138Z,7.11
2023-05-09T17:42:19.146Z,6.91
2023-05-09T17:43:19.077Z,7.14
2023-05-09T17:44:19.068Z,7.18
2023-05-09T17:45:19.063Z,7.02
2023-05-09T17:46:19.589Z,7.13
2023-05-09T17:47:19.050Z,7.29
2023-05-09T17:48:19.072Z,7.16
2023-05-09T17:49:19.058Z,6.89
2023-05-09T17:50:19.017Z,7.02
2023-05-09T17:51:19.044Z,7.41
2023-05-09T17:52:19.019Z,6.94
2023-05-09T17:53:19.037Z,7.10
2023-05-09T17:54:18.998Z,7.16
2023-05-09T17:55:18.984Z,7.02
2023-05-09T17:56:18.983Z,6.89
2023-05-09T17:57:18.982Z,6.80
2023-05-09T17:58:18.970Z,6.99
2023-05-09T17:59:18.965Z,6.98
2023-05-09T18:00:18.953Z,6.85
2023-05-09T18:01:19.059Z,6.79
2023-05-09T18:02:19.102Z,7.05
2023-05-09T18:03:18.992Z,6.78
2023-05-09T18:04:18.912Z,6.80
2023-05-09T18:05:18.910Z,6.51
2023-05-09T18:06:18.906Z,7.06
2023-05-09T18:07:18.910Z,6.66
2023-05-09T18:08:18.924Z,7.00
2023-05-09T18:09:18.880Z,6.74
2023-05-09T18:10:18.870Z,6.93
2023-05-09T18:11:18.901Z,6.59
2023-05-09T18:12:18.886Z,6.91
2023-05-09T18:13:18.951Z,6.51
2023-05-09T18:14:18.904Z,6.74
2023-05-09T18:15:18.898Z,6.85
2023-05-09T18:16:18.993Z,6.91
2023-05-09T18:17:18.907Z,6.79
2023-05-09T18:18:19.097Z,6.92
2023-05-09T18:19:18.921Z,6.65
2023-05-09T18:20:18.967Z,6.49
2023-05-09T18:21:18.930Z,6.61
2023-05-09T18:22:18.947Z,6.61
2023-05-09T18:23:18.956Z,6.79
2023-05-09T18:24:18.956Z,6.59
2023-05-09T18:25:18.964Z,6.57
2023-05-09T18:26:18.969Z,6.74
2023-05-09T18:27:18.979Z,6.73
2023-05-09T18:28:18.982Z,6.52
2023-05-09T18:29:18.991Z,6.36
2023-05-09T18:30:19.024Z,6.35
2023-05-09T18:31:19.076Z,6.59
2023-05-09T18:32:19.017Z,6.55
2023-05-09T18:33:19.008Z,6.47
2023-05-09T18:34:19.130Z,6.46
2023-05-09T18:35:19.022Z,6.34
2023-05-09T18:36:19.028Z,6.38
2023-05-09T18:37:19.031Z,6.33
2023-05-09T18:38:19.041Z,6.36
2023-05-09T18:39:19.046Z,6.55
2023-05-09T18:40:19.060Z,6.38
2023-05-09T18:41:19.067Z,6.38
2023-05-09T18:42:19.845Z,6.49
2023-05-09T18:43:19.096Z,6.42
2023-05-09T18:44:19.115Z,6.41
2023-05-09T18:45:19.104Z,6.33
2023-05-09T18:46:19.163Z,6.34
2023-05-09T18:47:19.213Z,6.36
2023-05-09T18:48:19.136Z,6.37
2023-05-09T18:49:19.149Z,6.31
2023-05-09T18:50:19.282Z,6.34
2023-05-09T18:51:19.168Z,6.34
2023-05-09T18:52:19.178Z,6.25
2023-05-09T18:53:19.202Z,6.30
2023-05-09T18:54:19.193Z,6.18
2023-05-09T18:55:19.213Z,6.19
2023-05-09T18:56:19.233Z,6.27
2023-05-09T18:57:19.243Z,6.33
2023-05-09T18:58:19.265Z,6.16
2023-05-09T18:59:19.267Z,6.06
2023-05-09T19:00:19.283Z,6.26
2023-05-09T19:01:19.393Z,6.20
2023-05-09T19:02:19.321Z,6.11
2023-05-09T19:03:19.331Z,6.05
2023-05-09T19:04:19.443Z,6.17
2023-05-09T19:05:19.357Z,6.01
2023-05-09T19:06:19.515Z,6.19
2023-05-09T19:07:19.864Z,6.17
2023-05-09T19:08:19.428Z,6.07
2023-05-09T19:09:19.442Z,5.90
2023-05-09T19:10:19.459Z,6.04
2023-05-09T19:11:19.491Z,6.10
2023-05-09T19:12:19.504Z,5.72
2023-05-09T19:13:19.660Z,6.08
2023-05-09T19:14:19.518Z,6.07
2023-05-09T19:15:19.566Z,5.95
2023-05-09T19:16:19.622Z,5.93
2023-05-09T19:17:19.589Z,6.04
2023-05-09T19:18:19.615Z,5.92
2023-05-09T19:19:19.632Z,6.04
2023-05-09T19:20:19.641Z,5.88
2023-05-09T19:21:19.655Z,5.94
2023-05-09T19:22:19.796Z,5.91
2023-05-09T19:23:19.737Z,5.83
2023-05-09T19:24:19.709Z,5.82
2023-05-09T19:25:19.728Z,5.84
2023-05-09T19:26:19.748Z,5.60
2023-05-09T19:27:19.757Z,5.68
2023-05-09T19:28:19.778Z,5.65
2023-05-09T19:29:19.816Z,5.80
2023-05-09T19:30:19.807Z,5.85
2023-05-09T19:31:19.955Z,5.65
2023-05-09T19:32:19.871Z,5.73
2023-05-09T19:33:19.862Z,5.57
2023-05-09T19:34:19.890Z,5.68
2023-05-09T19:35:19.888Z,5.48
2023-05-09T19:36:19.899Z,5.62
2023-05-09T19:37:19.937Z,5.71
2023-05-09T19:38:20.003Z,5.58
2023-05-09T19:39:19.977Z,5.65
2023-05-09T19:40:19.965Z,5.61
2023-05-09T19:41:20.040Z,5.68
2023-05-09T19:42:20.019Z,5.55
2023-05-09T19:43:20.029Z,5.45
2023-05-09T19:44:20.061Z,5.60
2023-05-09T19:45:20.071Z,5.54
2023-05-09T19:46:20.126Z,5.56
2023-05-09T19:47:20.092Z,5.55
2023-05-09T19:48:20.117Z,5.52
2023-05-09T19:49:20.168Z,5.48
2023-05-09T19:50:20.167Z,5.57
2023-05-09T19:51:20.176Z,5.50
2023-05-09T19:52:20.246Z,5.43
2023-05-09T19:53:20.223Z,5.49
2023-05-09T19:54:20.285Z,5.48
2023-05-09T19:55:20.270Z,5.38
2023-05-09T19:56:20.296Z,5.25
2023-05-09T19:57:20.312Z,5.35
2023-05-09T19:58:20.332Z,5.29
2023-05-09T19:59:20.361Z,5.31
2023-05-09T20:00:20.380Z,5.30
2023-05-09T20:01:20.424Z,5.27
2023-05-09T20:02:20.424Z,5.26
2023-05-09T20:03:20.563Z,5.23
2023-05-09T20:04:20.482Z,5.14
2023-05-09T20:05:20.495Z,5.19
2023-05-09T20:06:20.523Z,5.17
2023-05-09T20:07:20.559Z,5.08
2023-05-09T20:08:20.582Z,5.18